Time;durP1;ratioP1;P1;durP2;ratioP2;P2;SDS_P1;SDS_P2;PMS_P1;PMS_P2;Temp;Humidity;BMP_temperature;BMP_pressure;BME280_temperature;BME280_humidity;BME280_pressure;Samples;Min_cycle;Max_cycle;Signal;HPM_P1;HPM_P2
2021/12/26 00:00:38;;;;;;;35.37;6.93;;;4.40;99.90;;;;;;2081723;28;20474;-68
2021/12/26 00:01:39;;;;;;;33.57;7.90;;;4.40;99.90;;;;;;2081039;28;20180;-68
2021/12/26 00:02:40;;;;;;;29.47;7.77;;;4.40;99.90;;;;;;2080997;28;20173;-68
2021/12/26 00:03:41;;;;;;;33.13;8.82;;;4.40;99.90;;;;;;2081558;28;20178;-68
2021/12/26 00:04:42;;;;;;;43.17;9.13;;;4.40;99.90;;;;;;2081542;28;20263;-68
2021/12/26 00:05:42;;;;;;;17.17;5.37;;;4.40;99.90;;;;;;2081471;28;20528;-68
2021/12/26 00:06:44;;;;;;;20.40;6.77;;;4.40;99.90;;;;;;2081543;28;20639;-68
2021/12/26 00:07:46;;;;;;;20.95;7.15;;;4.40;99.90;;;;;;2081584;28;20184;-68
2021/12/26 00:08:48;;;;;;;33.88;8.93;;;4.50;99.90;;;;;;2080948;28;20188;-68
2021/12/26 00:09:50;;;;;;;24.23;7.57;;;4.40;99.90;;;;;;2080757;28;20675;-68
2021/12/26 00:10:52;;;;;;;25.42;8.23;;;4.40;99.90;;;;;;2081711;28;20239;-68
2021/12/26 00:11:52;;;;;;;28.52;7.65;;;4.30;99.90;;;;;;2081501;28;20180;-68
2021/12/26 00:12:53;;;;;;;24.77;7.47;;;4.40;99.90;;;;;;2081609;28;20181;-68
2021/12/26 00:13:55;;;;;;;22.03;7.57;;;4.30;99.90;;;;;;2081463;28;20199;-68
2021/12/26 00:14:56;;;;;;;28.13;9.23;;;4.30;99.90;;;;;;2081326;28;20199;-69
2021/12/26 00:15:59;;;;;;;15.32;5.97;;;4.40;99.90;;;;;;2081522;28;20648;-68
2021/12/26 00:17:00;;;;;;;14.77;6.30;;;4.40;99.90;;;;;;2081383;28;20216;-68
2021/12/26 00:18:01;;;;;;;12.23;7.00;;;4.40;99.90;;;;;;2081585;28;20539;-67
2021/12/26 00:19:02;;;;;;;14.83;6.87;;;4.40;99.90;;;;;;2081467;28;20183;-68
2021/12/26 00:20:07;;;;;;;10.52;6.28;;;4.40;99.90;;;;;;2080810;28;20294;-67
2021/12/26 00:21:08;;;;;;;14.48;6.60;;;4.40;99.90;;;;;;2080931;28;20207;-68
2021/12/26 00:22:09;;;;;;;18.13;8.25;;;4.40;99.90;;;;;;2080848;28;20180;-69
2021/12/26 00:23:10;;;;;;;14.93;6.67;;;4.40;99.90;;;;;;2080851;28;20189;-68
2021/12/26 00:24:10;;;;;;;16.00;7.33;;;4.30;99.90;;;;;;2081582;28;20173;-68
2021/12/26 00:25:12;;;;;;;13.77;6.33;;;4.30;99.90;;;;;;2076503;28;20185;-67
2021/12/26 00:26:14;;;;;;;13.80;6.50;;;4.30;99.90;;;;;;2073406;28;20182;-67
2021/12/26 00:27:16;;;;;;;12.15;6.45;;;4.30;99.90;;;;;;2072551;28;20197;-67
2021/12/26 00:28:17;;;;;;;9.45;5.15;;;4.30;99.90;;;;;;2072736;28;20181;-67
2021/12/26 00:29:18;;;;;;;8.40;4.68;;;4.30;99.90;;;;;;2073200;28;20182;-68
2021/12/26 00:30:20;;;;;;;13.83;5.97;;;4.30;99.90;;;;;;2073124;28;20200;-67
2021/12/26 00:31:21;;;;;;;8.02;4.32;;;4.30;99.90;;;;;;2073345;28;20189;-69
2021/12/26 00:32:22;;;;;;;7.37;4.13;;;4.30;99.90;;;;;;2073304;28;20180;-69
2021/12/26 00:33:22;;;;;;;11.70;6.33;;;4.30;99.90;;;;;;2073109;28;20181;-67
2021/12/26 00:34:23;;;;;;;8.03;4.87;;;4.20;99.90;;;;;;2076321;28;20242;-68
2021/12/26 00:35:25;;;;;;;8.07;4.97;;;4.20;99.90;;;;;;2081198;28;20192;-68
2021/12/26 00:36:26;;;;;;;9.35;4.88;;;4.20;99.90;;;;;;2080738;28;20212;-68
2021/12/26 00:37:26;;;;;;;14.63;6.77;;;4.30;99.90;;;;;;2080722;28;20177;-68
2021/12/26 00:38:28;;;;;;;15.57;7.53;;;4.20;99.90;;;;;;2081438;28;20561;-67
2021/12/26 00:39:28;;;;;;;11.57;6.63;;;4.30;99.90;;;;;;2080611;28;20223;-69
2021/12/26 00:40:32;;;;;;;15.20;6.90;;;4.20;99.90;;;;;;2072706;28;20178;-68
2021/12/26 00:41:33;;;;;;;12.85;6.30;;;4.20;99.90;;;;;;2081143;28;20177;-69
2021/12/26 00:42:34;;;;;;;13.40;6.70;;;4.20;99.90;;;;;;2088785;28;20192;-69
2021/12/26 00:43:34;;;;;;;15.57;5.70;;;4.20;99.90;;;;;;2081312;28;20414;-68
2021/12/26 00:44:39;;;;;;;17.60;7.17;;;4.30;99.90;;;;;;2081161;28;20182;-69
2021/12/26 00:45:41;;;;;;;18.95;6.63;;;4.20;99.90;;;;;;2080757;28;20180;-71
2021/12/26 00:46:41;;;;;;;17.23;6.50;;;4.20;99.90;;;;;;2080792;28;20690;-69
2021/12/26 00:47:43;;;;;;;12.40;5.47;;;4.20;99.90;;;;;;2081200;28;20181;-69
2021/12/26 00:48:43;;;;;;;17.52;7.30;;;4.20;99.90;;;;;;2081297;28;20280;-70
2021/12/26 00:49:44;;;;;;;22.93;9.13;;;4.20;99.90;;;;;;2081169;28;20564;-68
2021/12/26 00:50:45;;;;;;;17.87;7.67;;;4.20;99.90;;;;;;2081298;28;20177;-69
2021/12/26 00:51:46;;;;;;;13.20;6.10;;;4.20;99.90;;;;;;2081201;28;20183;-69
2021/12/26 00:52:48;;;;;;;17.67;6.38;;;4.20;99.90;;;;;;2081349;28;20184;-69
2021/12/26 00:53:48;;;;;;;10.35;5.80;;;4.20;99.90;;;;;;2080654;28;20188;-69
2021/12/26 00:54:49;;;;;;;9.83;5.40;;;4.20;99.90;;;;;;2080532;28;20193;-70
2021/12/26 00:55:51;;;;;;;12.60;6.07;;;4.30;99.90;;;;;;2080637;28;20189;-69
2021/12/26 00:56:52;;;;;;;15.18;6.65;;;4.30;99.90;;;;;;2082230;28;20188;-69
2021/12/26 00:57:53;;;;;;;14.73;7.00;;;4.30;99.90;;;;;;2082931;28;20212;-70
2021/12/26 00:58:54;;;;;;;8.45;4.63;;;4.30;99.90;;;;;;2082414;28;20204;-70
2021/12/26 00:59:54;;;;;;;13.63;6.80;;;4.30;99.90;;;;;;2082452;28;20204;-69
2021/12/26 01:00:56;;;;;;;14.30;6.93;;;4.30;99.90;;;;;;2082460;28;20181;-70
2021/12/26 01:01:56;;;;;;;9.20;4.38;;;4.20;99.90;;;;;;2082443;28;20188;-70
2021/12/26 01:03:01;;;;;;;9.50;5.43;;;4.30;99.90;;;;;;2082259;28;20188;-70
2021/12/26 01:04:02;;;;;;;11.80;5.35;;;4.30;99.90;;;;;;2082321;28;20211;-70
2021/12/26 01:05:05;;;;;;;9.23;4.97;;;4.30;99.90;;;;;;2082319;28;20177;-70
2021/12/26 01:06:07;;;;;;;15.43;6.68;;;4.30;99.90;;;;;;2082230;28;20192;-69
2021/12/26 01:07:19;;;;;;;18.17;9.02;;;4.30;99.90;;;;;;2082317;28;20223;-70
2021/12/26 01:08:26;;;;;;;11.07;5.85;;;4.30;99.90;;;;;;2082320;28;20806;-69
2021/12/26 01:09:29;;;;;;;11.77;6.50;;;4.30;99.90;;;;;;2082384;28;20303;-71
2021/12/26 01:10:42;;;;;;;13.45;7.38;;;4.30;99.90;;;;;;2082347;28;20581;-71
2021/12/26 01:11:49;;;;;;;13.75;6.63;;;4.30;99.90;;;;;;2082421;28;20177;-72
2021/12/26 01:12:51;;;;;;;14.55;7.45;;;4.30;99.90;;;;;;2074940;28;20265;-71
2021/12/26 01:13:52;;;;;;;14.00;7.03;;;4.30;99.90;;;;;;2082421;28;20713;-71
2021/12/26 01:14:59;;;;;;;16.52;9.10;;;4.40;99.90;;;;;;2082168;28;20180;-70
2021/12/26 01:16:06;;;;;;;17.27;8.60;;;4.40;99.90;;;;;;2082791;28;20705;-70
2021/12/26 01:17:14;;;;;;;12.18;5.95;;;4.40;99.90;;;;;;2082171;28;20681;-70
2021/12/26 01:18:17;;;;;;;12.95;6.95;;;4.40;99.90;;;;;;2082295;28;20176;-70
2021/12/26 01:19:19;;;;;;;12.95;7.00;;;4.40;99.90;;;;;;2082340;28;20243;-71
2021/12/26 01:20:40;;;;;;;10.88;6.38;;;4.40;99.90;;;;;;2082265;28;20209;-70
2021/12/26 01:21:44;;;;;;;11.13;5.75;;;4.40;99.90;;;;;;2082961;28;20161;-70
2021/12/26 01:22:45;;;;;;;6.63;4.97;;;4.40;99.90;;;;;;2082174;28;20195;-69
2021/12/26 01:23:51;;;;;;;6.55;4.60;;;4.40;99.90;;;;;;2082172;28;20177;-70
2021/12/26 01:24:59;;;;;;;6.03;4.28;;;4.40;99.90;;;;;;2082221;28;20176;-70
2021/12/26 01:26:00;;;;;;;9.00;6.25;;;4.30;99.90;;;;;;2082331;28;20187;-70
2021/12/26 01:27:01;;;;;;;6.72;4.38;;;4.30;99.90;;;;;;2082259;28;20188;-70
2021/12/26 01:28:04;;;;;;;5.47;4.05;;;4.30;99.90;;;;;;2082406;28;20227;-70
2021/12/26 01:29:06;;;;;;;6.88;3.95;;;4.30;99.90;;;;;;2073891;28;20317;-69
2021/12/26 01:30:07;;;;;;;6.25;4.45;;;4.30;99.90;;;;;;2074182;28;20264;-70
2021/12/26 01:31:08;;;;;;;8.02;4.75;;;4.30;99.90;;;;;;2082745;28;20563;-70
2021/12/26 01:32:09;;;;;;;8.95;5.13;;;4.30;99.90;;;;;;2082845;28;20192;-70
2021/12/26 01:33:13;;;;;;;10.90;6.10;;;4.30;99.90;;;;;;2082638;28;20201;-70
2021/12/26 01:34:13;;;;;;;7.57;4.60;;;4.30;99.90;;;;;;2082785;28;20173;-70
2021/12/26 01:35:14;;;;;;;10.00;5.00;;;4.30;99.90;;;;;;2082449;28;20280;-70
2021/12/26 01:36:15;;;;;;;10.32;5.10;;;4.30;99.90;;;;;;2082505;28;20207;-70
2021/12/26 01:37:16;;;;;;;11.27;6.63;;;4.40;99.90;;;;;;2082006;28;20185;-71
2021/12/26 01:38:18;;;;;;;11.80;6.60;;;4.40;99.90;;;;;;2073992;28;20673;-70
2021/12/26 01:39:18;;;;;;;7.95;4.78;;;4.40;99.90;;;;;;2082039;28;20189;-71
2021/12/26 01:40:19;;;;;;;8.53;5.03;;;4.30;99.90;;;;;;2073719;28;20209;-70
2021/12/26 01:41:20;;;;;;;7.73;4.67;;;4.40;99.90;;;;;;2082207;28;20177;-71
2021/12/26 01:42:20;;;;;;;8.80;4.90;;;4.40;99.90;;;;;;2082760;28;20241;-72
2021/12/26 01:43:27;;;;;;;8.93;5.63;;;4.40;99.90;;;;;;2082738;28;20263;-70
2021/12/26 01:44:29;;;;;;;7.95;4.53;;;4.40;99.90;;;;;;2082203;28;20241;-70
2021/12/26 01:45:30;;;;;;;6.63;3.80;;;4.30;99.90;;;;;;2081996;28;20200;-71
2021/12/26 01:46:31;;;;;;;5.00;3.70;;;4.30;99.90;;;;;;2082176;28;20655;-70
2021/12/26 01:47:32;;;;;;;6.63;4.10;;;4.40;99.90;;;;;;2082094;28;20458;-71
2021/12/26 01:48:33;;;;;;;9.00;4.40;;;4.40;99.90;;;;;;2082787;28;20187;-70
2021/12/26 01:49:34;;;;;;;5.57;3.47;;;4.30;99.90;;;;;;2082138;28;20589;-70
2021/12/26 01:50:37;;;;;;;5.17;3.30;;;4.30;99.90;;;;;;2082059;28;20268;-70
2021/12/26 01:51:40;;;;;;;6.45;3.70;;;4.30;99.90;;;;;;2082167;28;20181;-70
2021/12/26 01:52:41;;;;;;;9.63;4.85;;;4.30;99.90;;;;;;2074198;28;20269;-70
2021/12/26 01:53:42;;;;;;;6.95;4.43;;;4.30;99.90;;;;;;2073946;28;20197;-70
2021/12/26 01:54:48;;;;;;;9.52;4.80;;;4.30;99.90;;;;;;2081976;28;20185;-70
2021/12/26 01:55:52;;;;;;;7.28;3.92;;;4.30;99.90;;;;;;2081947;28;20181;-70
2021/12/26 01:56:53;;;;;;;9.40;5.32;;;4.30;99.90;;;;;;2081836;28;20607;-70
2021/12/26 01:57:57;;;;;;;7.85;5.18;;;4.30;99.90;;;;;;2082098;28;20176;-70
2021/12/26 01:58:57;;;;;;;8.20;4.53;;;4.30;99.90;;;;;;2081996;28;20227;-70
2021/12/26 01:59:58;;;;;;;7.73;4.67;;;4.30;99.90;;;;;;2082049;28;20197;-70
2021/12/26 02:01:04;;;;;;;7.80;4.80;;;4.30;99.90;;;;;;2081969;28;20601;-70
2021/12/26 02:02:06;;;;;;;7.15;4.20;;;4.30;99.90;;;;;;2082564;28;20171;-70
2021/12/26 02:03:08;;;;;;;7.70;4.38;;;4.20;99.90;;;;;;2082010;28;20669;-70
2021/12/26 02:04:09;;;;;;;10.20;5.95;;;4.20;99.90;;;;;;2073998;28;20553;-70
2021/12/26 02:05:10;;;;;;;10.33;4.97;;;4.20;99.90;;;;;;2081787;28;20185;-70
2021/12/26 02:06:11;;;;;;;8.27;4.93;;;4.20;99.90;;;;;;2081984;28;20257;-70
2021/12/26 02:07:13;;;;;;;6.17;4.00;;;4.20;99.90;;;;;;2081724;28;20208;-71
2021/12/26 02:08:14;;;;;;;10.07;5.40;;;4.20;99.90;;;;;;2081868;28;20255;-70
2021/12/26 02:09:16;;;;;;;10.32;5.25;;;4.20;99.90;;;;;;2073911;28;20186;-70
2021/12/26 02:10:16;;;;;;;11.07;6.28;;;4.20;99.90;;;;;;2081916;28;20212;-70
2021/12/26 02:11:17;;;;;;;10.03;5.53;;;4.20;99.90;;;;;;2082486;28;20199;-70
2021/12/26 02:12:18;;;;;;;9.87;5.80;;;4.10;99.90;;;;;;2082540;28;20185;-69
2021/12/26 02:13:19;;;;;;;10.17;5.93;;;4.10;99.90;;;;;;2082548;28;20208;-70
2021/12/26 02:14:20;;;;;;;12.23;6.07;;;4.10;99.90;;;;;;2082597;28;20191;-70
2021/12/26 02:15:21;;;;;;;9.85;5.78;;;4.10;99.90;;;;;;2081773;28;20173;-70
2021/12/26 02:16:23;;;;;;;11.93;6.60;;;4.10;99.90;;;;;;2081872;28;20216;-70
2021/12/26 02:17:25;;;;;;;12.27;6.82;;;4.10;99.90;;;;;;2081775;28;20266;-69
2021/12/26 02:18:26;;;;;;;8.43;5.05;;;4.10;99.90;;;;;;2073864;28;20887;-70
2021/12/26 02:19:27;;;;;;;9.17;5.43;;;4.10;99.90;;;;;;2081781;28;20177;-70
2021/12/26 02:21:10;;;;;;;7.27;5.07;;;4.10;99.90;;;;;;2081862;28;20679;-70
2021/12/26 02:22:16;;;;;;;7.70;4.30;;;4.20;99.90;;;;;;2081898;28;20554;-70
2021/12/26 02:23:29;;;;;;;6.70;4.30;;;4.20;99.90;;;;;;2077931;28;20172;-70
2021/12/26 02:25:08;;;;;;;12.73;5.72;;;4.20;99.90;;;;;;2081565;28;20164;-69
2021/12/26 02:28:19;;;;;;;7.10;4.68;;;4.30;99.90;;;;;;2076092;28;20649;-71
2021/12/26 02:29:20;;;;;;;10.82;5.10;;;4.30;99.90;;;;;;2068153;28;20302;-70
2021/12/26 02:30:23;;;;;;;7.83;4.80;;;4.30;99.90;;;;;;2073553;28;20208;-70
2021/12/26 02:31:24;;;;;;;7.25;4.38;;;4.30;99.90;;;;;;2073484;28;20634;-70
2021/12/26 02:32:24;;;;;;;11.07;5.27;;;4.30;99.90;;;;;;2065550;28;20269;-70
2021/12/26 02:33:25;;;;;;;11.73;6.40;;;4.30;99.90;;;;;;2065447;28;20627;-70
2021/12/26 02:34:26;;;;;;;9.68;5.72;;;4.30;99.90;;;;;;2065464;28;20660;-71
2021/12/26 02:35:27;;;;;;;8.00;4.97;;;4.30;99.90;;;;;;2073488;28;20185;-69
2021/12/26 02:36:27;;;;;;;8.83;4.83;;;4.20;99.90;;;;;;2074040;28;20205;-70
2021/12/26 02:37:28;;;;;;;8.30;4.67;;;4.20;99.90;;;;;;2073463;28;20182;-70
2021/12/26 02:38:29;;;;;;;9.00;5.57;;;4.30;99.90;;;;;;2065256;28;20182;-69
2021/12/26 02:39:32;;;;;;;12.60;5.20;;;4.30;99.90;;;;;;2073333;28;20178;-71
2021/12/26 02:40:33;;;;;;;9.90;4.80;;;4.20;99.90;;;;;;2073434;28;20178;-71
2021/12/26 02:41:34;;;;;;;10.35;5.85;;;4.30;99.90;;;;;;2073511;28;20174;-71
2021/12/26 02:42:35;;;;;;;7.23;4.77;;;4.30;99.90;;;;;;2073427;28;20192;-68
2021/12/26 02:43:36;;;;;;;8.90;5.07;;;4.30;99.90;;;;;;2065498;28;20198;-71
2021/12/26 02:44:37;;;;;;;10.13;5.13;;;4.30;99.90;;;;;;2073256;28;20197;-69
2021/12/26 02:45:37;;;;;;;7.13;4.53;;;4.30;99.90;;;;;;2073478;28;20556;-68
2021/12/26 02:46:40;;;;;;;8.53;4.17;;;4.30;99.90;;;;;;2073495;28;20189;-69
2021/12/26 02:47:45;;;;;;;7.47;4.75;;;4.30;99.90;;;;;;2073403;28;20333;-71
2021/12/26 02:48:45;;;;;;;14.05;7.18;;;4.30;99.90;;;;;;2073339;28;20182;-71
2021/12/26 02:49:46;;;;;;;11.00;6.03;;;4.30;99.90;;;;;;2073288;28;20209;-70
2021/12/26 02:50:52;;;;;;;10.03;5.57;;;4.30;99.90;;;;;;2074040;28;20178;-71
2021/12/26 02:51:54;;;;;;;13.80;6.85;;;4.20;99.90;;;;;;2073382;28;20170;-71
2021/12/26 02:52:58;;;;;;;12.13;5.65;;;4.20;99.90;;;;;;2073323;28;20671;-71
2021/12/26 02:53:59;;;;;;;7.10;4.57;;;4.10;99.90;;;;;;2065741;28;20270;-70
2021/12/26 02:55:00;;;;;;;5.93;4.03;;;4.10;99.90;;;;;;2065055;28;20585;-70
2021/12/26 02:56:03;;;;;;;8.23;4.80;;;4.10;99.90;;;;;;2065389;28;20557;-71
2021/12/26 02:57:04;;;;;;;11.18;6.07;;;4.10;99.90;;;;;;2065343;28;20707;-72
2021/12/26 02:58:08;;;;;;;9.48;5.07;;;4.10;99.90;;;;;;2065224;28;20652;-72
2021/12/26 02:59:10;;;;;;;7.07;4.28;;;4.10;99.90;;;;;;2065555;28;20202;-69
2021/12/26 03:00:15;;;;;;;9.95;5.10;;;4.20;99.90;;;;;;2073175;28;20236;-70
2021/12/26 03:01:21;;;;;;;8.65;5.22;;;4.20;99.90;;;;;;2073410;28;20273;-70
2021/12/26 03:02:22;;;;;;;11.15;5.80;;;4.20;99.90;;;;;;2073437;28;20170;-69
2021/12/26 03:03:23;;;;;;;9.03;5.40;;;4.20;99.90;;;;;;2073933;28;20177;-70
2021/12/26 03:04:23;;;;;;;10.60;5.17;;;4.30;99.90;;;;;;2073848;28;20389;-69
2021/12/26 03:05:28;;;;;;;10.07;5.63;;;4.30;99.90;;;;;;2073673;28;20185;-69
2021/12/26 03:06:36;;;;;;;13.48;6.40;;;4.30;99.90;;;;;;2073509;28;20253;-71
2021/12/26 03:07:37;;;;;;;9.18;5.57;;;4.30;99.90;;;;;;2073231;28;20236;-69
2021/12/26 03:08:38;;;;;;;12.00;6.00;;;4.30;99.90;;;;;;2073258;28;20173;-71
2021/12/26 03:09:48;;;;;;;10.87;5.63;;;4.30;99.90;;;;;;2073192;28;20752;-69
2021/12/26 03:10:49;;;;;;;10.10;5.78;;;4.30;99.90;;;;;;2073999;28;20194;-69
2021/12/26 03:11:50;;;;;;;11.53;4.90;;;4.30;99.90;;;;;;2073192;28;20687;-69
2021/12/26 03:13:04;;;;;;;6.65;4.68;;;4.30;99.90;;;;;;2073267;28;20178;-70
2021/12/26 03:14:06;;;;;;;7.60;4.68;;;4.40;99.90;;;;;;2067075;28;20173;-69
2021/12/26 03:15:10;;;;;;;10.57;5.07;;;4.40;99.90;;;;;;2065084;28;20178;-69
2021/12/26 03:16:10;;;;;;;13.45;6.00;;;4.40;99.90;;;;;;2073098;28;20224;-69
2021/12/26 03:17:11;;;;;;;10.30;5.90;;;4.40;99.90;;;;;;2073167;28;20193;-70
2021/12/26 03:18:13;;;;;;;10.57;5.47;;;4.40;99.90;;;;;;2073197;28;20174;-70
2021/12/26 03:19:13;;;;;;;10.65;6.00;;;4.40;99.90;;;;;;2073344;28;20201;-69
2021/12/26 03:20:18;;;;;;;11.40;6.03;;;4.30;99.90;;;;;;2073526;28;20209;-69
2021/12/26 03:21:19;;;;;;;11.07;5.80;;;4.30;99.90;;;;;;2073804;28;20211;-69
2021/12/26 03:22:24;;;;;;;8.63;4.97;;;4.30;99.90;;;;;;2073722;28;20181;-70
2021/12/26 03:23:27;;;;;;;8.60;5.38;;;4.30;99.90;;;;;;2072773;28;20165;-69
2021/12/26 03:24:28;;;;;;;7.28;5.22;;;4.40;99.90;;;;;;2073175;28;20566;-68
2021/12/26 03:25:30;;;;;;;9.10;5.23;;;4.40;99.90;;;;;;2073092;28;20181;-68
2021/12/26 03:26:30;;;;;;;10.07;5.78;;;4.40;99.90;;;;;;2073003;28;20193;-69
2021/12/26 03:27:31;;;;;;;7.03;4.90;;;4.40;99.90;;;;;;2064844;28;20183;-69
2021/12/26 03:28:32;;;;;;;8.70;4.80;;;4.40;99.90;;;;;;2073133;28;20269;-69
2021/12/26 03:29:34;;;;;;;9.52;5.18;;;4.40;99.90;;;;;;2073045;28;20220;-69
2021/12/26 03:30:36;;;;;;;7.43;4.88;;;4.40;99.90;;;;;;2073003;28;20664;-70
2021/12/26 03:31:39;;;;;;;9.40;4.78;;;4.40;99.90;;;;;;2073137;28;20182;-69
2021/12/26 03:32:40;;;;;;;12.10;6.60;;;4.40;99.90;;;;;;2072952;28;20200;-70
2021/12/26 03:33:41;;;;;;;10.40;5.47;;;4.40;99.90;;;;;;2073059;28;20228;-70
2021/12/26 03:34:47;;;;;;;6.77;4.17;;;4.40;99.90;;;;;;2072928;28;20267;-70
2021/12/26 03:35:48;;;;;;;8.32;4.70;;;4.30;99.90;;;;;;2073066;28;20248;-71
2021/12/26 03:36:52;;;;;;;7.53;4.03;;;4.30;99.90;;;;;;2073067;28;20941;-71
2021/12/26 03:37:54;;;;;;;10.32;4.97;;;4.30;99.90;;;;;;2073082;28;20412;-70
2021/12/26 03:38:55;;;;;;;8.25;4.85;;;4.30;99.90;;;;;;2072888;28;20566;-70
2021/12/26 03:39:56;;;;;;;13.27;5.77;;;4.30;99.90;;;;;;2072987;28;20200;-70
2021/12/26 03:40:57;;;;;;;9.00;5.18;;;4.30;99.90;;;;;;2073123;28;20209;-70
2021/12/26 03:41:58;;;;;;;9.90;5.93;;;4.30;99.90;;;;;;2073061;28;20193;-70
2021/12/26 03:42:59;;;;;;;8.13;5.30;;;4.30;99.90;;;;;;2072948;28;20173;-70
2021/12/26 03:44:00;;;;;;;10.65;5.13;;;4.30;99.90;;;;;;2073077;28;20228;-70
2021/12/26 03:45:07;;;;;;;10.35;5.40;;;4.30;99.90;;;;;;2072751;28;20189;-70
2021/12/26 03:46:07;;;;;;;11.85;7.05;;;4.20;99.90;;;;;;2073637;28;20874;-70
2021/12/26 03:47:08;;;;;;;11.37;5.87;;;4.20;99.90;;;;;;2073554;28;20189;-70
2021/12/26 03:48:09;;;;;;;12.27;5.63;;;4.20;99.90;;;;;;2073518;28;20174;-70
2021/12/26 03:49:10;;;;;;;6.43;4.10;;;4.30;99.90;;;;;;2080938;28;20958;-72
2021/12/26 03:50:11;;;;;;;12.82;6.25;;;4.30;99.90;;;;;;2072994;28;20292;-70
2021/12/26 03:51:12;;;;;;;12.07;5.67;;;4.30;99.90;;;;;;2064737;28;20175;-71
2021/12/26 03:52:13;;;;;;;7.93;4.83;;;4.30;99.90;;;;;;2072989;28;20794;-70
2021/12/26 03:53:14;;;;;;;7.33;5.03;;;4.30;99.90;;;;;;2073587;28;20185;-70
2021/12/26 03:54:15;;;;;;;11.02;6.07;;;4.20;99.90;;;;;;2072868;28;20231;-70
2021/12/26 03:55:19;;;;;;;11.53;5.47;;;4.20;99.90;;;;;;2072774;28;20236;-70
2021/12/26 03:56:20;;;;;;;11.60;5.85;;;4.30;99.90;;;;;;2073083;28;20230;-71
2021/12/26 03:57:21;;;;;;;7.90;4.43;;;4.30;99.90;;;;;;2072923;28;20644;-70
2021/12/26 03:58:21;;;;;;;9.20;5.53;;;4.30;99.90;;;;;;2073604;28;20178;-70
2021/12/26 03:59:22;;;;;;;8.50;4.47;;;4.30;99.90;;;;;;2073413;28;20216;-70
2021/12/26 04:00:26;;;;;;;11.23;5.40;;;4.30;99.90;;;;;;2072754;28;20293;-71
2021/12/26 04:01:27;;;;;;;7.05;4.85;;;4.30;99.90;;;;;;2065212;28;20209;-70
2021/12/26 04:02:28;;;;;;;10.57;4.87;;;4.30;99.90;;;;;;2072921;28;20236;-70
2021/12/26 04:03:28;;;;;;;11.57;5.70;;;4.30;99.90;;;;;;2073466;28;20173;-75
2021/12/26 04:04:29;;;;;;;8.60;4.23;;;4.30;99.90;;;;;;2073208;28;20540;-69
2021/12/26 04:05:30;;;;;;;7.40;4.00;;;4.30;99.90;;;;;;2073348;28;20181;-70
2021/12/26 04:06:31;;;;;;;9.17;5.10;;;4.30;99.90;;;;;;2073404;28;20174;-74
2021/12/26 04:07:31;;;;;;;8.10;4.80;;;4.40;99.90;;;;;;2072772;28;20177;-70
2021/12/26 04:08:32;;;;;;;8.77;4.80;;;4.40;99.90;;;;;;2072905;28;20188;-70
2021/12/26 04:09:33;;;;;;;10.13;4.68;;;4.30;99.90;;;;;;2072732;28;20178;-70
2021/12/26 04:10:34;;;;;;;8.77;4.90;;;4.30;99.90;;;;;;2072875;28;20649;-70
2021/12/26 04:11:36;;;;;;;9.67;5.63;;;4.30;99.90;;;;;;2072810;28;20200;-70
2021/12/26 04:12:42;;;;;;;8.98;5.30;;;4.30;99.90;;;;;;2072941;28;20193;-71
2021/12/26 04:13:43;;;;;;;8.93;4.85;;;4.30;99.90;;;;;;2072733;28;20204;-71
2021/12/26 04:14:44;;;;;;;9.10;5.25;;;4.40;99.90;;;;;;2072727;28;20683;-70
2021/12/26 04:15:45;;;;;;;5.47;3.97;;;4.40;99.90;;;;;;2073299;28;20185;-70
2021/12/26 04:16:46;;;;;;;6.90;5.07;;;4.40;99.90;;;;;;2073277;28;20661;-70
2021/12/26 04:17:49;;;;;;;6.30;4.20;;;4.40;99.90;;;;;;2073219;28;20181;-70
2021/12/26 04:18:50;;;;;;;6.60;3.92;;;4.40;99.90;;;;;;2072826;28;20181;-69
2021/12/26 04:19:50;;;;;;;6.00;4.17;;;4.40;99.90;;;;;;2074340;28;20224;-71
2021/12/26 04:20:51;;;;;;;7.73;5.23;;;4.40;99.90;;;;;;2081540;28;20180;-70
2021/12/26 04:21:52;;;;;;;8.87;5.33;;;4.40;99.90;;;;;;2080878;28;20181;-70
2021/12/26 04:22:53;;;;;;;10.83;5.50;;;4.40;99.90;;;;;;2080943;28;20177;-70
2021/12/26 04:23:54;;;;;;;6.95;4.50;;;4.40;99.90;;;;;;2081628;28;20197;-70
2021/12/26 04:24:54;;;;;;;7.60;4.53;;;4.30;99.90;;;;;;2081345;28;20188;-70
2021/12/26 04:25:55;;;;;;;8.80;4.47;;;4.30;99.90;;;;;;2081105;28;20205;-70
2021/12/26 04:26:56;;;;;;;8.37;4.07;;;4.40;99.90;;;;;;2080699;28;20694;-71
2021/12/26 04:27:57;;;;;;;8.52;4.70;;;4.40;99.90;;;;;;2080971;28;20177;-70
2021/12/26 04:28:58;;;;;;;5.37;3.90;;;4.40;99.90;;;;;;2080852;28;20204;-73
2021/12/26 04:29:59;;;;;;;9.07;5.40;;;4.30;99.90;;;;;;2080840;28;20568;-70
2021/12/26 04:30:59;;;;;;;9.07;4.80;;;4.30;99.90;;;;;;2081326;28;20177;-70
2021/12/26 04:32:00;;;;;;;8.90;4.40;;;4.30;99.90;;;;;;2080932;28;20239;-69
2021/12/26 04:33:01;;;;;;;7.87;4.73;;;4.40;99.90;;;;;;2080779;28;20181;-69
2021/12/26 04:34:03;;;;;;;8.05;4.22;;;4.40;99.90;;;;;;2080801;28;20671;-69
2021/12/26 04:35:04;;;;;;;6.93;4.22;;;4.30;99.90;;;;;;2080574;28;20185;-69
2021/12/26 04:36:05;;;;;;;11.73;5.65;;;4.40;99.90;;;;;;2080787;28;20203;-69
2021/12/26 04:37:06;;;;;;;6.57;3.92;;;4.40;99.90;;;;;;2081260;28;20230;-70
2021/12/26 04:38:07;;;;;;;8.10;4.07;;;4.40;99.90;;;;;;2080844;28;20235;-69
2021/12/26 04:39:07;;;;;;;5.70;3.60;;;4.40;99.90;;;;;;2080805;28;20185;-70
2021/12/26 04:40:13;;;;;;;7.23;3.93;;;4.40;99.90;;;;;;2081395;28;20197;-70
2021/12/26 04:41:14;;;;;;;5.85;3.88;;;4.40;99.90;;;;;;2080808;28;20259;-69
2021/12/26 04:42:15;;;;;;;5.10;3.60;;;4.40;99.90;;;;;;2080779;28;20181;-69
2021/12/26 04:43:17;;;;;;;9.00;3.70;;;4.40;99.90;;;;;;2080749;28;20201;-69
2021/12/26 04:44:17;;;;;;;5.68;3.70;;;4.40;99.90;;;;;;2080915;28;20208;-69
2021/12/26 04:45:18;;;;;;;6.33;3.80;;;4.40;99.90;;;;;;2080445;28;20181;-70
2021/12/26 04:46:19;;;;;;;8.23;4.47;;;4.40;99.90;;;;;;2081307;28;20184;-69
2021/12/26 04:47:20;;;;;;;9.43;4.93;;;4.30;99.90;;;;;;2081079;28;20177;-70
2021/12/26 04:48:20;;;;;;;6.47;3.83;;;4.30;99.90;;;;;;2081373;28;20562;-70
2021/12/26 04:49:21;;;;;;;5.47;3.80;;;4.30;99.90;;;;;;2081253;28;20181;-70
2021/12/26 04:50:26;;;;;;;5.33;3.73;;;4.30;99.90;;;;;;2081175;28;20207;-70
2021/12/26 04:51:27;;;;;;;8.70;4.80;;;4.30;99.90;;;;;;2080694;28;20199;-70
2021/12/26 04:52:28;;;;;;;7.93;4.60;;;4.30;99.90;;;;;;2072579;28;20190;-70
2021/12/26 04:53:28;;;;;;;8.37;4.90;;;4.30;99.90;;;;;;2080604;28;20596;-70
2021/12/26 04:54:29;;;;;;;7.57;4.57;;;4.30;99.90;;;;;;2080519;28;20212;-69
2021/12/26 04:55:30;;;;;;;8.20;4.50;;;4.30;99.90;;;;;;2080647;28;20261;-70
2021/12/26 04:56:31;;;;;;;6.70;4.10;;;4.30;99.90;;;;;;2081164;28;20247;-70
2021/12/26 04:57:32;;;;;;;6.43;4.20;;;4.30;99.90;;;;;;2081081;28;20183;-69
2021/12/26 04:58:33;;;;;;;6.43;4.13;;;4.20;99.90;;;;;;2081167;28;20176;-70
2021/12/26 04:59:35;;;;;;;8.75;4.97;;;4.20;99.90;;;;;;2080462;28;20204;-69
2021/12/26 05:00:35;;;;;;;7.55;4.00;;;4.20;99.90;;;;;;2080611;28;20181;-70
2021/12/26 05:01:36;;;;;;;8.93;4.37;;;4.20;99.90;;;;;;2080545;28;20180;-70
2021/12/26 05:02:38;;;;;;;8.37;5.10;;;4.20;99.90;;;;;;2081243;28;20307;-70
2021/12/26 05:03:40;;;;;;;8.60;5.35;;;4.20;99.90;;;;;;2080499;28;20173;-69
2021/12/26 05:04:41;;;;;;;6.40;4.68;;;4.20;99.90;;;;;;2072800;28;20189;-69
2021/12/26 05:05:44;;;;;;;9.82;5.15;;;4.20;99.90;;;;;;2080432;28;20205;-70
2021/12/26 05:06:46;;;;;;;11.90;5.47;;;4.20;99.90;;;;;;2080505;28;20212;-70
2021/12/26 05:07:48;;;;;;;6.25;3.78;;;4.20;99.90;;;;;;2080576;28;20762;-70
2021/12/26 05:08:49;;;;;;;8.82;5.47;;;4.20;99.90;;;;;;2080519;28;20181;-70
2021/12/26 05:09:49;;;;;;;7.57;4.50;;;4.10;99.90;;;;;;2072263;28;20211;-70
2021/12/26 05:10:50;;;;;;;7.00;4.37;;;4.10;99.90;;;;;;2080539;28;20262;-70
2021/12/26 05:11:52;;;;;;;7.80;4.50;;;4.10;99.90;;;;;;2081111;28;20188;-70
2021/12/26 05:12:53;;;;;;;7.07;4.88;;;4.10;99.90;;;;;;2080530;28;20188;-71
2021/12/26 05:13:54;;;;;;;10.00;4.87;;;4.10;99.90;;;;;;2080445;28;20291;-70
2021/12/26 05:14:54;;;;;;;6.70;3.97;;;4.10;99.90;;;;;;2080364;28;20191;-69
2021/12/26 05:15:55;;;;;;;8.20;4.20;;;4.10;99.90;;;;;;2081074;28;20180;-70
2021/12/26 05:16:56;;;;;;;11.23;5.50;;;4.10;99.90;;;;;;2081026;28;20551;-69
2021/12/26 05:17:57;;;;;;;6.87;4.17;;;4.10;99.90;;;;;;2081152;28;20227;-70
2021/12/26 05:18:58;;;;;;;6.72;3.78;;;4.10;99.90;;;;;;2080457;28;20561;-70
2021/12/26 05:19:59;;;;;;;6.77;4.20;;;4.10;99.90;;;;;;2080394;28;20236;-70
2021/12/26 05:21:00;;;;;;;9.85;4.93;;;4.10;99.90;;;;;;2080493;28;20177;-69
2021/12/26 05:22:00;;;;;;;11.70;5.67;;;4.20;99.90;;;;;;2081117;28;20184;-70
2021/12/26 05:23:01;;;;;;;10.30;5.37;;;4.20;99.90;;;;;;2081128;28;20177;-70
2021/12/26 05:24:02;;;;;;;12.07;5.47;;;4.10;99.90;;;;;;2080560;28;20180;-70
2021/12/26 05:25:06;;;;;;;8.87;4.80;;;4.10;99.90;;;;;;2080249;28;20173;-70
2021/12/26 05:26:07;;;;;;;7.53;4.32;;;4.10;99.90;;;;;;2080526;28;20176;-70
2021/12/26 05:27:08;;;;;;;8.43;4.53;;;4.10;99.90;;;;;;2080460;28;20237;-69
2021/12/26 05:28:08;;;;;;;7.63;4.90;;;4.10;99.90;;;;;;2080414;28;20205;-70